createdAt,value
2019-02-11T00:01:38.019Z,1.90
2019-02-11T00:06:29.818Z,1.50
2019-02-11T00:11:21.583Z,1.90
2019-02-11T00:16:13.709Z,1.50
2019-02-11T00:21:05.628Z,1.50
2019-02-11T00:25:57.680Z,2.10
2019-02-11T00:30:49.372Z,1.80
2019-02-11T00:35:41.221Z,1.80
2019-02-11T00:40:33.026Z,0.90
2019-02-11T00:45:24.782Z,1.20
2019-02-11T00:50:17.573Z,1.80
2019-02-11T00:55:09.290Z,1.50
2019-02-11T01:00:01.279Z,1.60
2019-02-11T01:04:55.347Z,1.90
2019-02-11T01:09:46.824Z,1.00
2019-02-11T01:14:38.827Z,1.50
2019-02-11T01:19:30.863Z,2.00
2019-02-11T01:24:22.638Z,1.50
2019-02-11T01:29:14.597Z,1.90
2019-02-11T01:34:08.394Z,2.00
2019-02-11T01:39:00.470Z,1.20
2019-02-11T01:43:52.193Z,1.30
2019-02-11T01:48:44.369Z,1.40
2019-02-11T01:53:38.514Z,1.60
2019-02-11T01:58:29.989Z,1.20
2019-02-11T02:03:21.754Z,1.40
2019-02-11T02:08:13.634Z,1.40
2019-02-11T02:13:05.343Z,2.10
2019-02-11T02:17:57.302Z,1.80
2019-02-11T02:22:49.274Z,2.20
2019-02-11T02:27:40.317Z,3.00
2019-02-11T02:32:32.523Z,3.20
2019-02-11T02:37:24.619Z,3.50
2019-02-11T02:42:16.643Z,2.90
2019-02-11T02:47:08.526Z,2.80
2019-02-11T02:51:59.027Z,3.20
2019-02-11T02:56:49.645Z,2.70
2019-02-11T03:01:40.354Z,2.50
2019-02-11T03:06:32.132Z,3.10
2019-02-11T03:11:23.912Z,3.10
2019-02-11T03:16:14.908Z,3.30
2019-02-11T03:21:05.731Z,3.20
2019-02-11T03:25:57.472Z,2.10
2019-02-11T03:30:49.586Z,2.60
2019-02-11T03:35:41.483Z,2.20
2019-02-11T03:40:33.565Z,2.80
2019-02-11T03:45:25.562Z,2.80
2019-02-11T03:50:17.568Z,2.80
2019-02-11T03:55:09.324Z,3.20
2019-02-11T04:00:00.318Z,3.90
2019-02-11T04:04:51.015Z,2.80
2019-02-11T04:09:41.761Z,4.40
2019-02-11T04:14:32.673Z,5.80
2019-02-11T04:19:23.688Z,4.50
2019-02-11T04:24:15.587Z,5.10
2019-02-11T04:29:07.511Z,4.90
2019-02-11T04:33:59.271Z,4.90
2019-02-11T04:38:51.761Z,6.10
2019-02-11T04:43:43.651Z,5.40
2019-02-11T04:48:35.682Z,5.90
2019-02-11T04:53:27.508Z,5.80
2019-02-11T04:58:19.522Z,6.50
2019-02-11T05:03:11.371Z,7.20
2019-02-11T05:08:03.371Z,6.10
2019-02-11T05:12:55.147Z,5.10
2019-02-11T05:17:47.018Z,8.90
2019-02-11T05:22:38.774Z,4.60
2019-02-11T05:27:30.744Z,5.40
2019-02-11T05:32:22.750Z,5.80
2019-02-11T05:37:14.470Z,4.80
2019-02-11T05:42:06.831Z,5.90
2019-02-11T05:46:58.424Z,5.20
2019-02-11T05:51:50.313Z,5.20
2019-02-11T05:56:42.597Z,4.30
2019-02-11T06:01:34.261Z,5.50
2019-02-11T06:06:26.285Z,3.40
2019-02-11T06:11:18.302Z,3.50
2019-02-11T06:16:10.221Z,3.50
2019-02-11T06:21:01.993Z,3.80
2019-02-11T06:25:54.282Z,4.10
2019-02-11T06:30:47.138Z,4.40
2019-02-11T06:35:39.175Z,4.90
2019-02-11T06:40:30.804Z,3.60
2019-02-11T06:45:22.857Z,3.70
2019-02-11T06:50:14.823Z,2.40
2019-02-11T06:55:06.702Z,3.70
2019-02-11T06:59:58.893Z,4.10
2019-02-11T07:04:50.831Z,4.40
2019-02-11T07:09:44.743Z,4.10
2019-02-11T07:14:36.561Z,3.70
2019-02-11T07:19:28.513Z,3.30
2019-02-11T07:24:20.309Z,3.10
2019-02-11T07:29:12.298Z,3.80
2019-02-11T07:34:04.426Z,3.60
2019-02-11T07:38:56.510Z,3.20
2019-02-11T07:43:48.916Z,4.00
2019-02-11T07:48:40.769Z,4.60
2019-02-11T07:53:32.609Z,4.80
2019-02-11T07:58:24.667Z,4.50
2019-02-11T08:03:16.720Z,4.00
2019-02-11T08:08:08.409Z,5.90
2019-02-11T08:13:02.286Z,5.00
2019-02-11T08:17:53.638Z,4.80
2019-02-11T08:22:45.661Z,5.60
2019-02-11T08:27:37.843Z,3.70
2019-02-11T08:32:30.012Z,4.20
2019-02-11T08:37:22.235Z,5.40
2019-02-11T08:42:14.430Z,4.70
2019-02-11T08:47:06.587Z,4.20
2019-02-11T08:51:58.583Z,6.10
2019-02-11T08:56:50.569Z,4.40
2019-02-11T09:01:42.483Z,4.80
2019-02-11T09:06:34.643Z,4.40
2019-02-11T09:11:26.488Z,5.50
2019-02-11T09:16:18.485Z,5.20
2019-02-11T09:21:10.482Z,5.30
2019-02-11T09:26:02.652Z,4.60
2019-02-11T09:30:54.718Z,5.90
2019-02-11T09:35:50.296Z,6.00
2019-02-11T09:40:41.571Z,5.00
2019-02-11T09:45:33.434Z,5.50
2019-02-11T09:50:25.257Z,6.10
2019-02-11T09:55:16.920Z,5.40
2019-02-11T10:00:08.588Z,6.40
2019-02-11T10:05:00.639Z,5.30
2019-02-11T10:09:52.721Z,5.20
2019-02-11T10:14:44.415Z,6.80
2019-02-11T10:19:35.620Z,4.80
2019-02-11T10:24:26.482Z,4.60
2019-02-11T10:29:18.370Z,4.90
2019-02-11T10:34:09.507Z,5.20
2019-02-11T10:39:00.917Z,4.90
2019-02-11T10:43:51.075Z,5.00
2019-02-11T10:48:42.415Z,4.80
2019-02-11T10:53:34.002Z,5.20
2019-02-11T10:58:25.245Z,6.00
2019-02-11T11:03:16.004Z,4.10
2019-02-11T11:08:06.995Z,5.00
2019-02-11T11:12:57.858Z,4.50
2019-02-11T11:17:48.776Z,3.50
2019-02-11T11:22:39.885Z,3.60
2019-02-11T11:27:30.782Z,4.20
2019-02-11T11:32:22.446Z,4.90
2019-02-11T11:37:13.887Z,5.90
2019-02-11T11:42:04.198Z,4.10
2019-02-11T11:46:57.305Z,4.70
2019-02-11T11:51:47.312Z,5.20
2019-02-11T11:56:38.288Z,6.10
2019-02-11T12:01:29.042Z,5.30
2019-02-11T12:06:25.943Z,4.70
2019-02-11T12:11:16.836Z,4.40
2019-02-11T12:16:08.586Z,3.10
2019-02-11T12:21:00.143Z,5.10
2019-02-11T12:25:51.585Z,3.40
2019-02-11T12:30:42.850Z,3.60
2019-02-11T12:35:34.014Z,3.40
2019-02-11T12:40:25.432Z,2.40
2019-02-11T12:45:16.420Z,2.70
2019-02-11T12:50:07.291Z,3.70
2019-02-11T12:54:57.729Z,2.70
2019-02-11T12:59:48.530Z,2.70
2019-02-11T13:04:39.416Z,3.80
2019-02-11T13:09:30.451Z,3.50
2019-02-11T13:14:20.902Z,3.90
2019-02-11T13:19:11.807Z,2.60
2019-02-11T13:24:02.563Z,2.60
2019-02-11T13:28:52.974Z,1.70
2019-02-11T13:33:43.402Z,2.70
2019-02-11T13:38:34.045Z,1.20
2019-02-11T13:43:24.988Z,0.90
2019-02-11T13:48:15.846Z,1.20
2019-02-11T13:53:06.917Z,1.30
2019-02-11T13:57:58.574Z,1.20
2019-02-11T14:02:50.505Z,1.20
2019-02-11T14:07:42.011Z,0.50
2019-02-11T14:12:33.124Z,1.00
2019-02-11T14:17:24.579Z,1.10
2019-02-11T14:22:15.586Z,2.30
2019-02-11T14:27:06.835Z,2.20
2019-02-11T14:31:57.998Z,1.50
2019-02-11T14:36:48.875Z,1.60
2019-02-11T14:41:39.868Z,1.60
2019-02-11T14:46:30.769Z,1.70
2019-02-11T14:51:21.906Z,1.80
2019-02-11T14:56:13.409Z,1.30
2019-02-11T15:01:04.675Z,1.40
2019-02-11T15:05:55.323Z,1.20
2019-02-11T15:10:45.949Z,1.00
2019-02-11T15:15:38.325Z,2.10
2019-02-11T15:20:28.788Z,2.00
2019-02-11T15:25:20.032Z,1.50
2019-02-11T15:30:12.033Z,1.40
2019-02-11T15:35:03.341Z,1.60
2019-02-11T15:39:54.211Z,1.00
2019-02-11T15:44:45.276Z,1.70
2019-02-11T15:49:36.462Z,1.30
2019-02-11T15:54:27.281Z,1.30
2019-02-11T15:59:18.266Z,1.70
2019-02-11T16:04:09.582Z,0.70
2019-02-11T16:09:05.233Z,1.70
2019-02-11T16:13:55.003Z,1.50
2019-02-11T16:18:52.359Z,2.00
2019-02-11T16:23:42.859Z,1.80
2019-02-11T16:28:33.349Z,2.70
2019-02-11T16:33:24.859Z,1.90
2019-02-11T16:38:15.528Z,2.40
2019-02-11T16:43:06.632Z,1.70
2019-02-11T16:47:58.412Z,2.10
2019-02-11T16:52:49.681Z,2.90
2019-02-11T16:57:41.422Z,1.60
2019-02-11T17:02:32.616Z,1.60
2019-02-11T17:07:23.441Z,1.40
2019-02-11T17:12:13.938Z,1.90
2019-02-11T17:17:04.307Z,2.00
2019-02-11T17:21:55.416Z,1.00
2019-02-11T17:26:47.434Z,1.20
2019-02-11T17:31:39.257Z,1.50
2019-02-11T17:36:31.012Z,1.20
2019-02-11T17:41:22.567Z,3.80
2019-02-11T17:46:14.251Z,1.70
2019-02-11T17:51:05.994Z,1.60
2019-02-11T17:55:57.665Z,2.40
2019-02-11T18:00:49.570Z,3.80
2019-02-11T18:05:41.336Z,2.00
2019-02-11T18:10:33.228Z,2.70
2019-02-11T18:15:24.909Z,2.10
2019-02-11T18:20:16.861Z,2.40
2019-02-11T18:25:08.678Z,2.30
2019-02-11T18:30:00.766Z,2.00
2019-02-11T18:34:52.376Z,4.20
2019-02-11T18:39:44.367Z,3.50
2019-02-11T18:44:36.337Z,3.30
2019-02-11T18:49:34.454Z,2.70
2019-02-11T18:54:25.135Z,1.80
2019-02-11T18:59:24.553Z,2.70
2019-02-11T19:04:16.182Z,3.70
2019-02-11T19:09:07.470Z,4.30
2019-02-11T19:14:01.157Z,4.50
2019-02-11T19:18:52.318Z,3.40
2019-02-11T19:23:44.169Z,3.50
2019-02-11T19:28:35.528Z,4.00
2019-02-11T19:33:26.919Z,4.80
2019-02-11T19:38:18.696Z,3.40
2019-02-11T19:43:10.561Z,5.30
2019-02-11T19:48:02.297Z,4.40
2019-02-11T19:52:54.296Z,5.00
2019-02-11T19:57:44.714Z,3.80
2019-02-11T20:02:36.728Z,3.20
2019-02-11T20:07:28.525Z,3.10
2019-02-11T20:12:20.538Z,2.30
2019-02-11T20:17:12.694Z,3.50
2019-02-11T20:22:04.428Z,3.00
2019-02-11T20:26:56.308Z,3.00
2019-02-11T20:31:47.081Z,4.20
2019-02-11T20:36:38.332Z,3.20
2019-02-11T20:41:28.948Z,3.60
2019-02-11T20:46:19.702Z,3.50
2019-02-11T20:51:11.421Z,3.20
2019-02-11T20:56:03.285Z,5.30
2019-02-11T21:00:55.178Z,3.70
2019-02-11T21:05:46.976Z,4.00
2019-02-11T21:10:38.809Z,3.50
2019-02-11T21:15:30.737Z,4.60
2019-02-11T21:20:22.500Z,5.80
2019-02-11T21:25:14.539Z,4.30
2019-02-11T21:30:06.385Z,4.60
2019-02-11T21:34:58.137Z,6.20
2019-02-11T21:39:50.119Z,4.30
2019-02-11T21:44:42.200Z,4.80
2019-02-11T21:49:34.027Z,5.60
2019-02-11T21:54:25.872Z,4.10
2019-02-11T21:59:16.175Z,3.80
2019-02-11T22:04:08.080Z,4.30
2019-02-11T22:08:58.646Z,3.00
2019-02-11T22:13:50.441Z,3.50
2019-02-11T22:18:43.010Z,3.80
2019-02-11T22:23:33.599Z,4.20
2019-02-11T22:28:24.168Z,4.80
2019-02-11T22:33:15.936Z,4.00
2019-02-11T22:38:07.899Z,3.00
2019-02-11T22:42:59.686Z,3.30
2019-02-11T22:47:50.319Z,4.40
2019-02-11T22:52:41.285Z,2.90
2019-02-11T22:57:32.949Z,2.90
2019-02-11T23:02:25.710Z,4.10
2019-02-11T23:07:17.526Z,3.10
2019-02-11T23:12:08.546Z,3.00
2019-02-11T23:16:58.929Z,4.10
2019-02-11T23:21:51.695Z,3.50
2019-02-11T23:26:43.524Z,3.40
2019-02-11T23:31:35.236Z,4.30
2019-02-11T23:36:26.917Z,5.10
2019-02-11T23:41:18.876Z,3.80
2019-02-11T23:46:10.957Z,3.70
2019-02-11T23:51:02.780Z,3.50
2019-02-11T23:55:54.565Z,3.90
